X  Zamknij Lotniskowe dane METAR     LZPP Piešťany Airport
Temperatura
22°C Temperatura
17°C Punkt rosy
73% Wilgotność



Wiatr
23 KM/H
14 MPH
6 M/S
12 KTS



350°
N
Warunki bieżące

Częściowe zachmurzenie Częściowe zachmurzenie
Ciśnienie 1012.87 (hPa) - 29.91 (inHg)
Widoczność 6 (mil) - 9.7 (km)
Lotnisko
Kod lotniska LZPP

Położenie: Piešťany Airport
Odległość: 31 (km)

Metar:
LZPP 220500Z 35012KT 9999 FEW025TCU BKN035 22/17 Q1013

Czas: 22-06-2024 07:00 CEST